createdAt,value
2023-04-01T00:00:45.716Z,81.44
2023-04-01T00:02:17.486Z,81.63
2023-04-01T00:03:49.372Z,81.90
2023-04-01T00:05:21.309Z,81.64
2023-04-01T00:06:53.118Z,82.19
2023-04-01T00:08:26.111Z,82.28
2023-04-01T00:09:57.645Z,81.95
2023-04-01T00:11:29.271Z,82.26
2023-04-01T00:13:00.956Z,81.95
2023-04-01T00:14:32.586Z,81.38
2023-04-01T00:16:19.797Z,81.11
2023-04-01T00:17:52.462Z,81.07
2023-04-01T00:19:24.071Z,80.92
2023-04-01T00:20:55.788Z,81.52
2023-04-01T00:22:27.925Z,80.90
2023-04-01T00:24:00.204Z,80.33
2023-04-01T00:25:32.681Z,81.38
2023-04-01T00:27:04.912Z,80.66
2023-04-01T00:28:37.225Z,80.27
2023-04-01T00:30:10.018Z,81.24
2023-04-01T00:31:41.733Z,80.32
2023-04-01T00:33:13.517Z,80.42
2023-04-01T00:34:45.613Z,80.73
2023-04-01T00:36:20.233Z,80.53
2023-04-01T00:37:52.000Z,81.11
2023-04-01T00:39:23.644Z,80.40
2023-04-01T00:40:59.340Z,80.63
2023-04-01T00:42:30.938Z,80.25
2023-04-01T00:44:23.798Z,80.95
2023-04-01T00:45:55.498Z,80.59
2023-04-01T00:47:28.455Z,81.16
2023-04-01T00:49:01.921Z,81.31
2023-04-01T00:50:36.052Z,81.40
2023-04-01T00:52:11.300Z,81.00
2023-04-01T00:53:45.612Z,81.33
2023-04-01T00:55:20.241Z,81.59
2023-04-01T00:56:57.455Z,81.07
2023-04-01T00:58:31.950Z,81.77
2023-04-01T01:00:08.344Z,81.08
2023-04-01T01:01:40.298Z,81.18
2023-04-01T01:03:13.605Z,81.15
2023-04-01T01:04:45.388Z,80.67
2023-04-01T01:06:55.032Z,80.77
2023-04-01T01:08:52.626Z,80.65
2023-04-01T01:10:36.172Z,80.02
2023-04-01T01:12:15.021Z,80.14
2023-04-01T01:14:02.239Z,80.02
2023-04-01T01:15:42.372Z,80.17
2023-04-01T01:17:29.231Z,79.55
2023-04-01T01:19:18.925Z,79.84
2023-04-01T01:21:08.893Z,79.02
2023-04-01T01:22:53.241Z,78.26
2023-04-01T01:24:24.874Z,78.57
2023-04-01T01:26:35.475Z,78.87
2023-04-01T01:28:28.878Z,78.29
2023-04-01T01:30:25.356Z,78.16
2023-04-01T01:32:02.551Z,78.45
2023-04-01T01:33:39.823Z,78.61
2023-04-01T01:35:23.375Z,78.24
2023-04-01T01:37:00.169Z,78.20
2023-04-01T01:38:34.866Z,78.60
2023-04-01T01:40:12.650Z,78.36
2023-04-01T01:41:50.307Z,78.19
2023-04-01T01:43:26.453Z,77.96
2023-04-01T01:45:00.746Z,77.82
2023-04-01T01:46:32.986Z,77.85
2023-04-01T01:48:06.601Z,77.45
2023-04-01T01:49:40.566Z,76.97
2023-04-01T01:51:12.299Z,77.03
2023-04-01T01:52:43.918Z,77.13
2023-04-01T01:54:18.534Z,77.61
2023-04-01T01:55:50.190Z,77.55
2023-04-01T01:57:33.905Z,76.95
2023-04-01T01:59:11.849Z,77.27
2023-04-01T02:00:48.144Z,77.34
2023-04-01T02:02:20.865Z,77.37
2023-04-01T02:03:53.845Z,77.40
2023-04-01T02:05:30.268Z,77.68
2023-04-01T02:07:14.698Z,77.31
2023-04-01T02:08:48.052Z,77.45
2023-04-01T02:10:23.476Z,77.41
2023-04-01T02:12:10.817Z,77.20
2023-04-01T02:13:53.538Z,77.91
2023-04-01T02:15:28.194Z,78.01
2023-04-01T02:17:08.398Z,77.71
2023-04-01T02:18:42.118Z,78.26
2023-04-01T02:20:18.345Z,78.57
2023-04-01T02:21:57.824Z,78.78
2023-04-01T02:23:29.955Z,79.01
2023-04-01T02:25:10.640Z,78.66
2023-04-01T02:26:42.685Z,78.58
2023-04-01T02:28:17.502Z,77.96
2023-04-01T02:29:49.261Z,78.54
2023-04-01T02:31:21.708Z,78.94
2023-04-01T02:32:54.313Z,78.68
2023-04-01T02:34:27.231Z,78.85
2023-04-01T02:35:59.279Z,78.60
2023-04-01T02:37:32.303Z,79.40
2023-04-01T02:39:06.130Z,79.77
2023-04-01T02:40:46.835Z,79.50
2023-04-01T02:42:18.351Z,79.40
2023-04-01T02:43:50.065Z,80.41
2023-04-01T02:45:22.110Z,79.90
2023-04-01T02:46:54.046Z,79.27
2023-04-01T02:48:26.983Z,79.07
2023-04-01T02:50:01.206Z,79.97
2023-04-01T02:51:33.565Z,80.13
2023-04-01T02:53:07.144Z,80.55
2023-04-01T02:54:39.581Z,80.34
2023-04-01T02:56:11.422Z,80.47
2023-04-01T02:57:42.930Z,79.96
2023-04-01T02:59:14.562Z,80.36
2023-04-01T03:00:46.186Z,80.41
2023-04-01T03:02:18.319Z,80.71
2023-04-01T03:03:50.072Z,80.97
2023-04-01T03:05:22.174Z,81.42
2023-04-01T03:06:53.745Z,81.09
2023-04-01T03:08:25.468Z,80.77
2023-04-01T03:09:57.001Z,80.03
2023-04-01T03:11:28.708Z,80.14
2023-04-01T03:13:00.315Z,79.72
2023-04-01T03:14:31.980Z,79.69
2023-04-01T03:16:04.048Z,79.45
2023-04-01T03:17:35.893Z,79.31
2023-04-01T03:19:07.473Z,78.80
2023-04-01T03:20:39.260Z,79.60
2023-04-01T03:22:13.852Z,79.40
2023-04-01T03:23:45.539Z,78.56
2023-04-01T03:25:17.212Z,78.88
2023-04-01T03:26:49.523Z,78.71
2023-04-01T03:28:21.135Z,79.16
2023-04-01T03:29:52.773Z,79.64
2023-04-01T03:31:24.998Z,79.78
2023-04-01T03:33:01.550Z,80.26
2023-04-01T03:34:33.378Z,79.68
2023-04-01T03:36:07.592Z,79.69
2023-04-01T03:37:39.354Z,80.08
2023-04-01T03:39:11.093Z,79.81
2023-04-01T03:40:46.540Z,79.50
2023-04-01T03:42:18.927Z,79.70
2023-04-01T03:43:50.624Z,79.74
2023-04-01T03:45:22.221Z,79.78
2023-04-01T03:46:54.464Z,79.39
2023-04-01T03:48:26.971Z,79.29
2023-04-01T03:49:58.947Z,79.65
2023-04-01T03:51:31.501Z,80.24
2023-04-01T03:53:03.413Z,79.61
2023-04-01T03:54:35.247Z,79.78
2023-04-01T03:56:08.575Z,79.52
2023-04-01T03:57:41.338Z,79.07
2023-04-01T03:59:21.452Z,78.96
2023-04-01T04:00:53.740Z,79.37
2023-04-01T04:02:25.510Z,79.68
2023-04-01T04:03:57.374Z,79.37
2023-04-01T04:05:29.055Z,79.55
2023-04-01T04:07:00.728Z,79.09
2023-04-01T04:08:34.660Z,79.53
2023-04-01T04:10:06.981Z,79.50
2023-04-01T04:11:38.628Z,80.11
2023-04-01T04:13:10.719Z,81.04
2023-04-01T04:14:48.422Z,81.18
2023-04-01T04:16:20.286Z,80.88
2023-04-01T04:17:58.164Z,80.49
2023-04-01T04:19:34.819Z,81.12
2023-04-01T04:21:07.126Z,81.15
2023-04-01T04:22:38.677Z,81.20
2023-04-01T04:24:12.228Z,81.31
2023-04-01T04:26:14.893Z,81.26
2023-04-01T04:27:47.536Z,81.62
2023-04-01T04:29:20.326Z,81.43
2023-04-01T04:30:52.171Z,81.38
2023-04-01T04:32:23.686Z,80.41
2023-04-01T04:33:55.787Z,80.81
2023-04-01T04:35:27.476Z,80.62
2023-04-01T04:36:59.391Z,80.33
2023-04-01T04:38:35.364Z,80.71
2023-04-01T04:40:07.733Z,80.72
2023-04-01T04:41:39.345Z,80.61
2023-04-01T04:43:15.239Z,80.36
2023-04-01T04:44:47.635Z,80.85
2023-04-01T04:46:20.632Z,81.28
2023-04-01T04:47:55.345Z,80.30
2023-04-01T04:49:27.042Z,80.01
2023-04-01T04:50:58.826Z,80.09
2023-04-01T04:52:30.808Z,80.27
2023-04-01T04:54:04.749Z,80.29
2023-04-01T04:55:53.572Z,80.58
2023-04-01T04:57:34.100Z,80.58
2023-04-01T04:59:06.317Z,80.65
2023-04-01T05:00:47.865Z,80.32
2023-04-01T05:02:26.815Z,80.10
2023-04-01T05:03:58.478Z,80.12
2023-04-01T05:05:30.320Z,79.67
2023-04-01T05:07:02.324Z,79.90
2023-04-01T05:08:36.866Z,79.72
2023-04-01T05:10:08.847Z,79.17
2023-04-01T05:11:41.201Z,78.25
2023-04-01T05:13:12.863Z,78.00
2023-04-01T05:14:45.671Z,77.70
2023-04-01T05:16:19.421Z,77.64
2023-04-01T05:17:51.287Z,77.67
2023-04-01T05:19:22.929Z,78.55
2023-04-01T05:20:55.803Z,77.85
2023-04-01T05:22:28.261Z,78.16
2023-04-01T05:23:59.900Z,77.33
2023-04-01T05:25:32.431Z,77.51
2023-04-01T05:27:05.886Z,77.37
2023-04-01T05:28:37.902Z,77.08
2023-04-01T05:30:10.131Z,77.06
2023-04-01T05:32:01.810Z,77.03
2023-04-01T05:33:34.716Z,76.92
2023-04-01T05:35:07.204Z,76.54
2023-04-01T05:36:39.328Z,76.44
2023-04-01T05:38:13.478Z,76.76
2023-04-01T05:39:45.290Z,75.42
2023-04-01T05:41:17.480Z,76.25
2023-04-01T05:42:51.177Z,76.32
2023-04-01T05:44:23.585Z,77.00
2023-04-01T05:46:04.449Z,75.96
2023-04-01T05:47:54.847Z,76.24
2023-04-01T05:49:28.416Z,76.00
2023-04-01T05:51:00.807Z,76.30
2023-04-01T05:52:33.998Z,75.46
2023-04-01T05:54:06.897Z,75.70
2023-04-01T05:55:38.922Z,75.83
2023-04-01T05:57:10.853Z,75.05
2023-04-01T05:58:51.226Z,75.40
2023-04-01T06:00:23.082Z,75.16
2023-04-01T06:01:55.510Z,74.82
2023-04-01T06:03:27.766Z,74.96
2023-04-01T06:05:14.462Z,74.96
2023-04-01T06:06:46.525Z,75.17
2023-04-01T06:08:20.538Z,74.41
2023-04-01T06:09:52.943Z,73.46
2023-04-01T06:12:10.910Z,73.98
2023-04-01T06:14:07.029Z,74.09
2023-04-01T06:16:10.564Z,74.43
2023-04-01T06:18:11.234Z,73.80
2023-04-01T06:20:18.033Z,73.49
2023-04-01T06:22:08.539Z,73.25
2023-04-01T06:24:07.184Z,73.09
2023-04-01T06:25:47.972Z,73.11
2023-04-01T06:27:50.575Z,73.54
2023-04-01T06:29:43.715Z,72.56
2023-04-01T06:31:40.076Z,73.02
2023-04-01T06:33:31.351Z,72.61
2023-04-01T06:35:03.034Z,72.63
2023-04-01T06:36:43.814Z,72.96
2023-04-01T06:38:45.867Z,73.47
2023-04-01T06:40:39.463Z,73.08
2023-04-01T06:42:31.936Z,73.45
2023-04-01T06:44:14.373Z,72.76
2023-04-01T06:46:21.461Z,73.02
2023-04-01T06:48:45.421Z,72.25
2023-04-01T06:51:18.539Z,71.67
2023-04-01T06:53:26.003Z,72.31
2023-04-01T06:55:22.908Z,71.61
2023-04-01T06:57:30.540Z,72.06
2023-04-01T06:59:05.753Z,71.56
2023-04-01T07:00:41.755Z,72.48
2023-04-01T07:02:25.596Z,71.84
2023-04-01T07:04:02.980Z,71.87
2023-04-01T07:05:36.937Z,71.52
2023-04-01T07:07:20.573Z,71.57
2023-04-01T07:09:06.522Z,72.09
2023-04-01T07:11:03.242Z,71.97
2023-04-01T07:12:57.435Z,71.30
2023-04-01T07:14:52.108Z,71.96
2023-04-01T07:16:29.794Z,71.62
2023-04-01T07:18:29.670Z,71.73
2023-04-01T07:20:10.419Z,71.74
2023-04-01T07:21:49.914Z,71.38
2023-04-01T07:23:43.381Z,71.91
2023-04-01T07:25:38.856Z,72.32
2023-04-01T07:27:33.621Z,72.16
2023-04-01T07:29:11.506Z,72.10
2023-04-01T07:31:01.773Z,71.62
2023-04-01T07:32:59.172Z,71.85
2023-04-01T07:34:59.458Z,72.34
2023-04-01T07:36:39.857Z,72.03
2023-04-01T07:38:41.516Z,72.04
2023-04-01T07:40:52.338Z,72.45
2023-04-01T07:42:38.470Z,72.60
2023-04-01T07:44:40.345Z,72.86
2023-04-01T07:46:17.598Z,73.03
2023-04-01T07:48:16.607Z,71.99
2023-04-01T07:50:22.157Z,71.34
2023-04-01T07:51:56.688Z,72.13
2023-04-01T07:54:14.876Z,72.71
2023-04-01T07:55:47.843Z,72.22
2023-04-01T07:57:28.543Z,71.97
2023-04-01T07:59:00.867Z,72.57
2023-04-01T08:01:02.776Z,72.34
2023-04-01T08:02:53.782Z,72.54
2023-04-01T08:04:57.435Z,72.36
2023-04-01T08:06:52.082Z,71.58
2023-04-01T08:08:35.299Z,72.04
2023-04-01T08:10:51.465Z,71.82
2023-04-01T08:12:58.610Z,71.70
2023-04-01T08:15:06.533Z,72.46
2023-04-01T08:17:18.891Z,72.23
2023-04-01T08:18:56.273Z,73.16
2023-04-01T08:20:51.448Z,72.64
2023-04-01T08:22:30.292Z,73.10
2023-04-01T08:24:22.230Z,73.33
2023-04-01T08:26:18.890Z,73.78
2023-04-01T08:28:20.305Z,73.12
2023-04-01T08:29:59.776Z,73.42
2023-04-01T08:31:59.295Z,74.70
2023-04-01T08:33:33.198Z,74.39
2023-04-01T08:35:34.896Z,73.69
2023-04-01T08:37:15.115Z,73.64
2023-04-01T08:38:50.005Z,73.88
2023-04-01T08:40:42.047Z,74.40
2023-04-01T08:42:13.693Z,74.81
2023-04-01T08:44:12.987Z,74.37
2023-04-01T08:46:04.396Z,74.21
2023-04-01T08:47:36.214Z,74.25
2023-04-01T08:49:13.813Z,73.19
2023-04-01T08:51:08.767Z,74.09
2023-04-01T08:53:16.232Z,73.99
2023-04-01T08:55:04.024Z,73.97
2023-04-01T08:57:14.206Z,73.82
2023-04-01T08:59:18.359Z,73.16
2023-04-01T09:01:12.343Z,73.32
2023-04-01T09:02:59.108Z,73.89
2023-04-01T09:04:56.647Z,73.90
2023-04-01T09:06:41.422Z,74.47
2023-04-01T09:08:25.425Z,74.52
2023-04-01T09:10:34.746Z,75.00
2023-04-01T09:12:37.068Z,74.57
2023-04-01T09:14:27.466Z,75.08
2023-04-01T09:16:40.442Z,75.61
2023-04-01T09:18:25.078Z,74.72
2023-04-01T09:20:31.770Z,74.85
2023-04-01T09:22:12.939Z,74.05
2023-04-01T09:23:44.544Z,74.26
2023-04-01T09:25:42.791Z,74.56
2023-04-01T09:27:42.027Z,75.06
2023-04-01T09:29:41.051Z,74.49
2023-04-01T09:31:21.536Z,74.84
2023-04-01T09:33:31.553Z,76.10
2023-04-01T09:35:41.904Z,75.57
2023-04-01T09:37:22.534Z,75.84
2023-04-01T09:38:59.968Z,76.23
2023-04-01T09:40:32.696Z,76.83
2023-04-01T09:42:13.477Z,76.59
2023-04-01T09:44:04.853Z,76.00
2023-04-01T09:46:05.109Z,76.65
2023-04-01T09:47:52.754Z,75.59
2023-04-01T09:49:43.266Z,76.43
2023-04-01T09:51:20.935Z,76.01
2023-04-01T09:53:20.071Z,76.67
2023-04-01T09:55:09.689Z,76.08
2023-04-01T09:56:41.406Z,76.72
2023-04-01T09:58:34.538Z,76.25
2023-04-01T10:01:13.399Z,76.63
2023-04-01T10:02:53.860Z,77.20
2023-04-01T10:04:51.259Z,77.02
2023-04-01T10:07:14.568Z,77.05
2023-04-01T10:09:07.751Z,78.51
2023-04-01T10:10:57.834Z,77.89
2023-04-01T10:12:40.830Z,78.36
2023-04-01T10:14:24.507Z,78.63
2023-04-01T10:16:14.989Z,78.00
2023-04-01T10:17:55.783Z,78.59
2023-04-01T10:20:06.944Z,78.21
2023-04-01T10:22:05.471Z,78.47
2023-04-01T10:23:56.848Z,77.70
2023-04-01T10:25:52.850Z,77.08
2023-04-01T10:27:53.869Z,77.63
2023-04-01T10:29:43.930Z,77.61
2023-04-01T10:31:36.978Z,76.58
2023-04-01T10:33:17.576Z,77.12
2023-04-01T10:35:27.742Z,76.62
2023-04-01T10:37:09.557Z,77.61
2023-04-01T10:39:12.313Z,77.52
2023-04-01T10:41:13.294Z,76.59
2023-04-01T10:43:13.428Z,77.74
2023-04-01T10:44:56.148Z,77.47
2023-04-01T10:47:26.788Z,76.83
2023-04-01T10:49:26.214Z,76.27
2023-04-01T10:51:19.515Z,77.25
2023-04-01T10:53:01.467Z,76.15
2023-04-01T10:55:20.631Z,76.58
2023-04-01T10:57:57.444Z,77.37
2023-04-01T11:00:05.159Z,75.91
2023-04-01T11:02:33.882Z,76.45
2023-04-01T11:04:24.213Z,76.10
2023-04-01T11:06:38.665Z,76.27
2023-04-01T11:08:19.573Z,76.10
2023-04-01T11:10:09.617Z,76.04
2023-04-01T11:11:56.916Z,74.83
2023-04-01T11:13:34.566Z,74.98
2023-04-01T11:15:11.839Z,74.04
2023-04-01T11:16:58.745Z,72.78
2023-04-01T11:18:57.785Z,72.87
2023-04-01T11:20:57.785Z,73.59
2023-04-01T11:22:49.141Z,73.42
2023-04-01T11:24:47.643Z,72.52
2023-04-01T11:27:09.177Z,72.40
2023-04-01T11:29:11.386Z,72.68
2023-04-01T11:30:59.741Z,71.52
2023-04-01T11:32:43.439Z,71.11
2023-04-01T11:34:20.046Z,70.27
2023-04-01T11:35:54.643Z,70.94
2023-04-01T11:37:56.194Z,70.74
2023-04-01T11:40:00.051Z,70.86
2023-04-01T11:42:16.274Z,70.72
2023-04-01T11:44:21.401Z,71.60
2023-04-01T11:46:16.531Z,70.76
2023-04-01T11:48:08.279Z,71.47
2023-04-01T11:50:16.279Z,70.82
2023-04-01T11:52:17.700Z,70.91
2023-04-01T11:54:01.631Z,70.48
2023-04-01T11:55:39.926Z,71.07
2023-04-01T11:57:41.877Z,71.36
2023-04-01T11:59:28.586Z,71.84
2023-04-01T12:01:03.083Z,71.01
2023-04-01T12:02:52.853Z,71.41
2023-04-01T12:05:02.197Z,71.54
2023-04-01T12:06:54.899Z,71.85
2023-04-01T12:08:38.041Z,72.39
2023-04-01T12:10:18.977Z,72.54
2023-04-01T12:12:12.357Z,72.91
2023-04-01T12:13:46.704Z,72.41
2023-04-01T12:15:38.564Z,73.13
2023-04-01T12:17:13.114Z,72.47
2023-04-01T12:18:52.014Z,72.14
2023-04-01T12:20:46.142Z,72.46
2023-04-01T12:22:42.215Z,72.15
2023-04-01T12:24:38.597Z,72.11
2023-04-01T12:26:22.324Z,71.84
2023-04-01T12:28:24.112Z,71.12
2023-04-01T12:30:01.725Z,70.96
2023-04-01T12:32:10.767Z,71.32
2023-04-01T12:34:01.684Z,70.57
2023-04-01T12:35:51.794Z,69.91
2023-04-01T12:37:48.359Z,71.01
2023-04-01T12:39:53.878Z,70.00
2023-04-01T12:41:55.603Z,69.30
2023-04-01T12:43:40.870Z,69.47
2023-04-01T12:45:32.162Z,68.48
2023-04-01T12:47:17.829Z,67.92
2023-04-01T12:49:11.020Z,67.99
2023-04-01T12:51:15.639Z,68.85
2023-04-01T12:53:07.774Z,68.18
2023-04-01T12:54:51.123Z,67.93
2023-04-01T12:56:50.622Z,67.63
2023-04-01T12:58:58.064Z,68.34
2023-04-01T13:00:43.349Z,68.55
2023-04-01T13:02:40.738Z,67.08
2023-04-01T13:04:49.879Z,66.81
2023-04-01T13:07:07.185Z,66.75
2023-04-01T13:08:57.080Z,67.58
2023-04-01T13:10:39.592Z,67.32
2023-04-01T13:12:37.056Z,67.80
2023-04-01T13:14:36.651Z,65.78
2023-04-01T13:16:30.702Z,65.40
2023-04-01T13:18:21.111Z,65.18
2023-04-01T13:20:11.019Z,63.25
2023-04-01T13:22:01.211Z,62.69
2023-04-01T13:23:51.830Z,63.66
2023-04-01T13:25:42.922Z,62.72
2023-04-01T13:27:35.629Z,62.82
2023-04-01T13:29:24.497Z,62.93
2023-04-01T13:31:08.599Z,63.86
2023-04-01T13:33:06.116Z,64.64
2023-04-01T13:34:50.634Z,64.05
2023-04-01T13:36:28.337Z,64.81
2023-04-01T13:38:36.913Z,64.12
2023-04-01T13:40:55.690Z,63.70
2023-04-01T13:42:42.412Z,63.24
2023-04-01T13:44:13.972Z,63.20
2023-04-01T13:46:03.897Z,64.07
2023-04-01T13:47:57.330Z,63.74
2023-04-01T13:50:13.800Z,63.79
2023-04-01T13:52:16.398Z,63.47
2023-04-01T13:54:26.968Z,64.52
2023-04-01T13:56:01.671Z,63.13
2023-04-01T13:57:44.333Z,63.29
2023-04-01T13:59:18.832Z,63.91
2023-04-01T14:01:26.571Z,64.68
2023-04-01T14:03:54.976Z,63.46
2023-04-01T14:05:39.885Z,63.39
2023-04-01T14:07:14.553Z,62.77
2023-04-01T14:09:04.659Z,62.72
2023-04-01T14:10:36.391Z,63.88
2023-04-01T14:12:19.846Z,63.50
2023-04-01T14:14:17.453Z,63.46
2023-04-01T14:15:55.006Z,64.75
2023-04-01T14:17:32.747Z,63.49
2023-04-01T14:19:08.393Z,63.42
2023-04-01T14:21:08.916Z,64.21
2023-04-01T14:23:05.879Z,65.18
2023-04-01T14:24:59.436Z,64.69
2023-04-01T14:26:49.708Z,64.03
2023-04-01T14:28:45.852Z,65.15
2023-04-01T14:30:46.611Z,64.08
2023-04-01T14:32:30.309Z,64.87
2023-04-01T14:34:30.966Z,64.78
2023-04-01T14:36:23.987Z,64.07
2023-04-01T14:38:07.576Z,63.60
2023-04-01T14:39:57.365Z,64.60
2023-04-01T14:41:50.048Z,64.65
2023-04-01T14:43:44.437Z,64.73
2023-04-01T14:45:43.654Z,64.43
2023-04-01T14:47:21.394Z,65.08
2023-04-01T14:49:23.955Z,64.18
2023-04-01T14:50:58.803Z,64.98
2023-04-01T14:52:36.896Z,64.91
2023-04-01T14:54:35.738Z,65.59
2023-04-01T14:56:07.447Z,65.04
2023-04-01T14:57:39.080Z,64.98
2023-04-01T14:59:28.047Z,65.20
2023-04-01T15:01:17.960Z,65.00
2023-04-01T15:03:19.277Z,64.73
2023-04-01T15:04:57.042Z,65.22
2023-04-01T15:06:42.734Z,65.86
2023-04-01T15:08:23.629Z,65.77
2023-04-01T15:10:22.147Z,64.84
2023-04-01T15:12:14.074Z,65.56
2023-04-01T15:14:02.818Z,65.26
2023-04-01T15:15:40.773Z,65.37
2023-04-01T15:17:39.888Z,66.37
2023-04-01T15:19:33.252Z,65.71
2023-04-01T15:21:19.172Z,66.18
2023-04-01T15:23:15.938Z,66.38
2023-04-01T15:25:00.181Z,66.73
2023-04-01T15:26:48.440Z,67.47
2023-04-01T15:28:20.109Z,67.28
2023-04-01T15:30:10.499Z,67.38
2023-04-01T15:32:03.768Z,67.17
2023-04-01T15:33:53.892Z,67.77
2023-04-01T15:35:53.296Z,67.46
2023-04-01T15:37:37.139Z,68.14
2023-04-01T15:39:08.737Z,68.33
2023-04-01T15:40:46.182Z,68.23
2023-04-01T15:42:32.996Z,68.16
2023-04-01T15:44:04.695Z,68.15
2023-04-01T15:45:42.268Z,68.59
2023-04-01T15:47:26.025Z,68.31
2023-04-01T15:49:29.994Z,67.79
2023-04-01T15:51:23.219Z,67.69
2023-04-01T15:53:08.854Z,67.84
2023-04-01T15:55:04.691Z,67.80
2023-04-01T15:56:57.517Z,68.20
2023-04-01T15:58:47.563Z,67.65
2023-04-01T16:00:27.700Z,67.20
2023-04-01T16:02:14.195Z,66.87
2023-04-01T16:03:55.063Z,66.88
2023-04-01T16:05:38.541Z,66.73
2023-04-01T16:07:25.534Z,66.48
2023-04-01T16:09:11.859Z,66.44
2023-04-01T16:11:05.421Z,66.72
2023-04-01T16:12:46.334Z,66.66
2023-04-01T16:14:39.156Z,66.08
2023-04-01T16:16:32.323Z,66.24
2023-04-01T16:18:19.703Z,66.28
2023-04-01T16:20:14.300Z,65.54
2023-04-01T16:22:02.662Z,66.41
2023-04-01T16:23:49.616Z,65.69
2023-04-01T16:25:32.641Z,65.29
2023-04-01T16:27:10.159Z,65.78
2023-04-01T16:28:55.562Z,65.50
2023-04-01T16:30:36.066Z,65.79
2023-04-01T16:32:20.147Z,65.92
2023-04-01T16:34:19.565Z,66.06
2023-04-01T16:36:01.924Z,66.04
2023-04-01T16:37:50.167Z,65.97
2023-04-01T16:39:44.609Z,65.65
2023-04-01T16:41:21.681Z,66.26
2023-04-01T16:43:12.712Z,65.98
2023-04-01T16:45:08.398Z,65.51
2023-04-01T16:46:47.393Z,66.34
2023-04-01T16:48:26.913Z,66.66
2023-04-01T16:50:47.788Z,66.18
2023-04-01T16:52:31.682Z,66.85
2023-04-01T16:54:11.820Z,66.65
2023-04-01T16:55:54.105Z,66.51
2023-04-01T16:57:31.599Z,67.17
2023-04-01T16:59:23.248Z,67.04
2023-04-01T17:01:08.739Z,67.12
2023-04-01T17:02:51.151Z,67.43
2023-04-01T17:04:44.352Z,67.28
2023-04-01T17:06:46.765Z,67.78
2023-04-01T17:08:29.689Z,68.01
2023-04-01T17:10:25.823Z,67.98
2023-04-01T17:12:16.225Z,68.38
2023-04-01T17:13:51.057Z,67.84
2023-04-01T17:15:43.016Z,68.27
2023-04-01T17:17:42.168Z,68.81
2023-04-01T17:19:35.818Z,68.85
2023-04-01T17:21:30.658Z,68.93
2023-04-01T17:23:09.274Z,68.79
2023-04-01T17:24:58.819Z,68.35
2023-04-01T17:26:43.328Z,69.00
2023-04-01T17:28:50.788Z,69.11
2023-04-01T17:30:44.026Z,69.26
2023-04-01T17:32:40.944Z,69.46
2023-04-01T17:34:22.183Z,69.59
2023-04-01T17:36:12.147Z,69.70
2023-04-01T17:38:18.282Z,69.84
2023-04-01T17:40:21.275Z,70.00
2023-04-01T17:42:07.344Z,69.57
2023-04-01T17:43:46.921Z,69.01
2023-04-01T17:45:21.690Z,68.56
2023-04-01T17:47:27.450Z,68.33
2023-04-01T17:49:40.994Z,67.54
2023-04-01T17:51:24.152Z,67.93
2023-04-01T17:53:00.681Z,67.18
2023-04-01T17:54:47.249Z,68.15
2023-04-01T17:56:45.209Z,67.57
2023-04-01T17:58:19.955Z,67.79
2023-04-01T18:00:04.497Z,68.13
2023-04-01T18:01:57.326Z,67.41
2023-04-01T18:04:01.639Z,67.54
2023-04-01T18:05:35.820Z,68.08
2023-04-01T18:07:23.598Z,67.31
2023-04-01T18:09:14.930Z,67.46
2023-04-01T18:10:52.408Z,67.49
2023-04-01T18:13:17.720Z,67.93
2023-04-01T18:14:58.544Z,68.32
2023-04-01T18:16:39.263Z,67.48
2023-04-01T18:18:31.860Z,67.77
2023-04-01T18:20:40.458Z,67.95
2023-04-01T18:22:41.968Z,68.29
2023-04-01T18:24:19.782Z,68.18
2023-04-01T18:26:02.789Z,68.17
2023-04-01T18:27:53.076Z,69.11
2023-04-01T18:29:41.288Z,69.19
2023-04-01T18:31:20.129Z,69.07
2023-04-01T18:33:13.325Z,69.85
2023-04-01T18:34:57.087Z,70.99
2023-04-01T18:36:53.075Z,70.76
2023-04-01T18:38:41.326Z,72.08
2023-04-01T18:40:25.255Z,72.18
2023-04-01T18:42:34.416Z,74.50
2023-04-01T18:44:32.451Z,76.12
2023-04-01T18:46:19.271Z,75.99
2023-04-01T18:47:59.946Z,76.36
2023-04-01T18:49:44.383Z,75.72
2023-04-01T18:51:23.890Z,76.75
2023-04-01T18:53:23.060Z,77.14
2023-04-01T18:55:03.771Z,77.33
2023-04-01T18:56:44.894Z,76.95
2023-04-01T18:58:51.643Z,76.98
2023-04-01T19:00:34.022Z,77.12
2023-04-01T19:02:08.699Z,77.95
2023-04-01T19:03:59.203Z,76.91
2023-04-01T19:05:37.741Z,77.13
2023-04-01T19:07:38.113Z,77.19
2023-04-01T19:09:21.168Z,77.07
2023-04-01T19:11:11.805Z,77.54
2023-04-01T19:13:23.743Z,77.71
2023-04-01T19:15:06.584Z,77.92
2023-04-01T19:17:06.017Z,78.64
2023-04-01T19:18:37.566Z,78.71
2023-04-01T19:20:22.460Z,79.33
2023-04-01T19:21:58.109Z,78.94
2023-04-01T19:23:56.034Z,79.69
2023-04-01T19:25:44.117Z,79.64
2023-04-01T19:27:38.671Z,80.52
2023-04-01T19:29:36.050Z,79.95
2023-04-01T19:31:37.543Z,80.12
2023-04-01T19:33:42.928Z,80.47
2023-04-01T19:35:32.830Z,81.13
2023-04-01T19:37:42.048Z,81.47
2023-04-01T19:39:48.118Z,81.01
2023-04-01T19:41:25.317Z,82.10
2023-04-01T19:43:19.924Z,82.08
2023-04-01T19:45:39.540Z,82.42
2023-04-01T19:47:17.176Z,82.12
2023-04-01T19:49:07.268Z,82.31
2023-04-01T19:50:41.656Z,82.43
2023-04-01T19:52:27.616Z,82.75
2023-04-01T19:54:18.079Z,83.88
2023-04-01T19:55:55.186Z,84.27
2023-04-01T19:57:29.886Z,84.94
2023-04-01T19:59:30.671Z,85.07
2023-04-01T20:01:04.919Z,83.94
2023-04-01T20:02:36.619Z,84.41
2023-04-01T20:04:18.253Z,84.85
2023-04-01T20:06:13.107Z,85.29
2023-04-01T20:08:09.857Z,84.57
2023-04-01T20:09:53.356Z,84.61
2023-04-01T20:11:31.296Z,84.74
2023-04-01T20:13:22.520Z,85.70
2023-04-01T20:14:59.725Z,85.59
2023-04-01T20:17:22.381Z,85.74
2023-04-01T20:19:00.693Z,85.40
2023-04-01T20:20:33.084Z,85.82
2023-04-01T20:22:19.275Z,86.59
2023-04-01T20:24:09.242Z,86.50
2023-04-01T20:25:58.311Z,87.06
2023-04-01T20:27:47.625Z,86.41
2023-04-01T20:29:40.660Z,86.37
2023-04-01T20:31:29.212Z,87.17
2023-04-01T20:33:19.506Z,86.84
2023-04-01T20:35:41.975Z,87.58
2023-04-01T20:37:46.021Z,86.62
2023-04-01T20:39:20.791Z,87.17
2023-04-01T20:41:03.697Z,86.47
2023-04-01T20:42:55.327Z,86.24
2023-04-01T20:44:53.059Z,85.99
2023-04-01T20:46:39.961Z,86.13
2023-04-01T20:48:35.441Z,86.36
2023-04-01T20:50:25.226Z,86.11
2023-04-01T20:52:11.923Z,86.84
2023-04-01T20:54:06.553Z,86.78
2023-04-01T20:55:47.475Z,87.22
2023-04-01T20:57:28.763Z,87.23
2023-04-01T20:59:12.575Z,87.56
2023-04-01T21:00:49.932Z,87.92
2023-04-01T21:02:42.727Z,87.10
2023-04-01T21:04:27.197Z,86.76
2023-04-01T21:06:25.026Z,85.42
2023-04-01T21:08:21.686Z,85.68
2023-04-01T21:10:02.312Z,85.30
2023-04-01T21:11:42.894Z,85.24
2023-04-01T21:13:14.403Z,86.19
2023-04-01T21:15:04.565Z,85.81
2023-04-01T21:16:42.702Z,85.78
2023-04-01T21:18:32.628Z,85.17
2023-04-01T21:20:29.215Z,85.88
2023-04-01T21:22:27.466Z,85.66
2023-04-01T21:24:10.358Z,86.16
2023-04-01T21:26:11.174Z,85.23
2023-04-01T21:28:16.784Z,86.02
2023-04-01T21:30:20.081Z,86.15
2023-04-01T21:32:05.899Z,86.11
2023-04-01T21:33:40.457Z,85.83
2023-04-01T21:35:33.582Z,86.09
2023-04-01T21:37:36.276Z,85.91
2023-04-01T21:39:22.784Z,86.47
2023-04-01T21:41:24.177Z,85.90
2023-04-01T21:43:11.263Z,85.93
2023-04-01T21:45:02.348Z,86.26
2023-04-01T21:47:11.272Z,86.35
2023-04-01T21:48:54.568Z,85.84
2023-04-01T21:50:31.870Z,86.31
2023-04-01T21:52:38.725Z,86.23
2023-04-01T21:54:58.543Z,86.10
2023-04-01T21:57:04.500Z,86.09
2023-04-01T21:58:54.799Z,85.83
2023-04-01T22:00:55.046Z,85.87
2023-04-01T22:02:57.640Z,86.18
2023-04-01T22:04:29.222Z,85.89
2023-04-01T22:06:24.117Z,86.40
2023-04-01T22:08:04.646Z,86.14
2023-04-01T22:09:51.502Z,85.48
2023-04-01T22:11:45.957Z,85.00
2023-04-01T22:13:20.169Z,84.27
2023-04-01T22:15:19.320Z,84.13
2023-04-01T22:17:06.671Z,84.29
2023-04-01T22:18:50.307Z,83.70
2023-04-01T22:20:38.018Z,82.74
2023-04-01T22:22:48.685Z,82.88
2023-04-01T22:24:44.192Z,83.36
2023-04-01T22:26:24.303Z,83.08
2023-04-01T22:28:07.699Z,83.02
2023-04-01T22:30:01.458Z,81.94
2023-04-01T22:32:14.699Z,82.42
2023-04-01T22:34:11.235Z,82.15
2023-04-01T22:35:48.691Z,81.76
2023-04-01T22:37:55.576Z,81.60
2023-04-01T22:39:35.514Z,80.96
2023-04-01T22:41:34.748Z,81.33
2023-04-01T22:43:11.686Z,81.82
2023-04-01T22:45:23.902Z,81.52
2023-04-01T22:47:01.549Z,81.19
2023-04-01T22:48:55.073Z,81.40
2023-04-01T22:50:33.392Z,81.18